createdAt,value
2023-03-28T16:01:08.578Z,987.84
2023-03-28T16:02:10.637Z,987.85
2023-03-28T16:03:11.811Z,987.80
2023-03-28T16:04:11.706Z,987.77
2023-03-28T16:05:12.594Z,987.75
2023-03-28T16:06:22.980Z,987.73
2023-03-28T16:07:13.766Z,987.71
2023-03-28T16:08:14.633Z,987.68
2023-03-28T16:09:15.429Z,987.65
2023-03-28T16:10:16.256Z,987.64
2023-03-28T16:11:17.017Z,987.67
2023-03-28T16:12:17.808Z,987.66
2023-03-28T16:13:18.677Z,987.65
2023-03-28T16:14:19.483Z,987.66
2023-03-28T16:15:20.281Z,987.67
2023-03-28T16:16:21.080Z,987.69
2023-03-28T16:17:21.845Z,987.70
2023-03-28T16:18:22.577Z,987.68
2023-03-28T16:19:23.303Z,987.68
2023-03-28T16:20:25.040Z,987.69
2023-03-28T16:21:25.744Z,987.69
2023-03-28T16:22:25.405Z,987.69
2023-03-28T16:23:26.124Z,987.69
2023-03-28T16:24:26.851Z,987.69
2023-03-28T16:25:27.580Z,987.70
2023-03-28T16:26:28.303Z,987.69
2023-03-28T16:27:29.018Z,987.68
2023-03-28T16:28:29.746Z,987.70
2023-03-28T16:35:21.713Z,987.47
2023-03-28T16:36:23.664Z,987.52
2023-03-28T16:37:24.491Z,987.53
2023-03-28T16:38:25.285Z,987.52
2023-03-28T16:39:26.077Z,987.51
2023-03-28T16:40:26.856Z,987.49
2023-03-28T16:41:27.636Z,987.48
2023-03-28T16:42:38.787Z,987.48
2023-03-28T16:43:40.663Z,987.42
2023-03-28T16:44:41.450Z,987.41
2023-03-28T16:45:42.286Z,987.40
2023-03-28T16:46:43.135Z,987.39
2023-03-28T16:47:43.985Z,987.36
2023-03-28T16:48:44.805Z,987.38
2023-03-28T16:49:45.092Z,987.38
2023-03-28T16:50:45.855Z,987.38
2023-03-28T16:51:46.620Z,987.37
2023-03-28T16:52:47.383Z,987.36
2023-03-28T16:53:48.169Z,987.39
2023-03-28T16:54:48.950Z,987.36
2023-03-28T16:55:49.718Z,987.36
2023-03-28T16:56:50.491Z,987.33
2023-03-28T16:57:51.296Z,987.32
2023-03-28T16:58:52.053Z,987.33
2023-03-28T16:59:52.815Z,987.36
2023-03-28T17:00:53.673Z,987.35
2023-03-28T17:01:54.480Z,987.32
2023-03-28T17:02:55.381Z,987.35
2023-03-28T17:03:56.233Z,987.34
2023-03-28T17:04:57.011Z,987.31
2023-03-28T17:07:01.554Z,987.25
2023-03-28T17:08:03.431Z,987.22
2023-03-28T17:09:04.259Z,987.20
2023-03-28T17:10:05.044Z,987.20
2023-03-28T17:11:05.852Z,987.20
2023-03-28T17:12:06.660Z,987.20
2023-03-28T17:13:07.472Z,987.17
2023-03-28T17:14:08.284Z,987.20
2023-03-28T17:15:09.097Z,987.18
2023-03-28T17:16:09.976Z,987.14
2023-03-28T17:17:10.852Z,987.13
2023-03-28T17:18:11.764Z,987.12
2023-03-28T17:19:12.606Z,987.11
2023-03-28T17:20:13.471Z,987.10
2023-03-28T17:21:14.298Z,987.07
2023-03-28T17:22:15.146Z,987.05
2023-03-28T17:23:16.042Z,987.03
2023-03-28T17:24:16.840Z,986.98
2023-03-28T17:25:17.640Z,986.97
2023-03-28T17:26:18.467Z,986.91
2023-03-28T17:27:19.250Z,986.88
2023-03-28T17:28:20.076Z,986.85
2023-03-28T17:29:20.854Z,986.84
2023-03-28T17:30:21.742Z,986.83
2023-03-28T17:31:22.624Z,986.83
2023-03-28T17:32:23.616Z,986.83
2023-03-28T17:33:23.427Z,986.81
2023-03-28T17:34:25.363Z,986.81
2023-03-28T17:35:26.230Z,986.82
2023-03-28T17:36:27.058Z,986.82
2023-03-28T17:37:27.870Z,986.81
2023-03-28T17:38:28.717Z,986.83
2023-03-28T17:39:29.520Z,986.82
2023-03-28T17:40:30.330Z,986.81
2023-03-28T17:41:31.141Z,986.81
2023-03-28T17:42:31.940Z,986.79
2023-03-28T17:43:32.750Z,986.80
2023-03-28T17:44:33.571Z,986.81
2023-03-28T17:45:34.370Z,986.75
2023-03-28T17:46:35.188Z,986.74
2023-03-28T17:47:36.053Z,986.74
2023-03-28T17:48:36.875Z,986.74
2023-03-28T17:49:38.667Z,986.74
2023-03-28T17:50:38.399Z,986.75
2023-03-28T17:51:39.339Z,986.76
2023-03-28T17:52:40.236Z,986.76
2023-03-28T17:53:41.045Z,986.74
2023-03-28T17:54:41.837Z,986.72
2023-03-28T17:55:42.647Z,986.70
2023-03-28T17:56:43.467Z,986.70
2023-03-28T17:57:44.281Z,986.68
2023-03-28T17:58:45.079Z,986.68
2023-03-28T17:59:45.932Z,986.70
2023-03-28T18:00:46.746Z,986.70
2023-03-28T18:01:47.608Z,986.75
2023-03-28T18:02:48.498Z,986.76
2023-03-28T18:03:49.430Z,986.80
2023-03-28T18:04:50.345Z,986.79
2023-03-28T18:05:51.144Z,986.79
2023-03-28T18:06:51.954Z,986.79
2023-03-28T18:07:52.746Z,986.77
2023-03-28T18:08:53.523Z,986.79
2023-03-28T18:09:54.318Z,986.77
2023-03-28T18:10:55.108Z,986.76
2023-03-28T18:11:55.895Z,986.75
2023-03-28T18:12:56.682Z,986.75
2023-03-28T18:13:57.478Z,986.74
2023-03-28T18:15:00.428Z,986.73
2023-03-28T18:15:58.926Z,986.76
2023-03-28T18:16:59.840Z,986.76
2023-03-28T18:18:00.646Z,986.75
2023-03-28T18:19:01.460Z,986.75
2023-03-28T18:20:02.263Z,986.78
2023-03-28T18:21:03.068Z,986.75
2023-03-28T18:22:03.882Z,986.75
2023-03-28T18:23:04.726Z,986.74
2023-03-28T18:24:05.524Z,986.74
2023-03-28T18:25:06.336Z,986.74
2023-03-28T18:26:07.131Z,986.73
2023-03-28T18:27:07.911Z,986.71
2023-03-28T18:28:08.702Z,986.71
2023-03-28T18:29:09.486Z,986.72
2023-03-28T18:30:10.322Z,986.69
2023-03-28T18:31:11.154Z,986.68
2023-03-28T18:32:11.980Z,986.68
2023-03-28T18:33:12.769Z,986.64
2023-03-28T18:34:13.812Z,986.63
2023-03-28T18:35:14.604Z,986.62
2023-03-28T18:36:15.486Z,986.63
2023-03-28T18:37:16.339Z,986.59
2023-03-28T18:38:17.131Z,986.57
2023-03-28T18:39:17.917Z,986.57
2023-03-28T18:40:18.715Z,986.55
2023-03-28T18:41:19.498Z,986.54
2023-03-28T18:42:20.287Z,986.50
2023-03-28T18:43:21.089Z,986.52
2023-03-28T18:44:21.896Z,986.50
2023-03-28T18:45:22.698Z,986.48
2023-03-28T18:46:23.590Z,986.47
2023-03-28T18:47:24.390Z,986.46
2023-03-28T18:48:25.208Z,986.45
2023-03-28T18:49:25.997Z,986.43
2023-03-28T18:50:26.790Z,986.46
2023-03-28T18:51:27.593Z,986.47
2023-03-28T18:52:29.747Z,986.48
2023-03-28T18:53:28.478Z,986.50
2023-03-28T18:54:29.275Z,986.50
2023-03-28T18:55:30.064Z,986.49
2023-03-28T18:56:30.855Z,986.47
2023-03-28T18:57:31.647Z,986.45
2023-03-28T18:58:32.457Z,986.45
2023-03-28T18:59:33.258Z,986.41
2023-03-28T19:00:34.053Z,986.40
2023-03-28T19:01:34.895Z,986.41
2023-03-28T19:02:35.926Z,986.41
2023-03-28T19:03:37.027Z,986.40
2023-03-28T19:04:37.900Z,986.38
2023-03-28T19:05:38.686Z,986.40
2023-03-28T19:06:39.493Z,986.38
2023-03-28T19:07:40.334Z,986.39
2023-03-28T19:08:41.143Z,986.36
2023-03-28T19:09:41.936Z,986.36
2023-03-28T19:10:42.771Z,986.34
2023-03-28T19:11:43.555Z,986.34
2023-03-28T19:12:44.354Z,986.35
2023-03-28T19:13:45.151Z,986.36
2023-03-28T19:14:45.970Z,986.37
2023-03-28T19:15:46.773Z,986.35
2023-03-28T19:16:47.594Z,986.36
2023-03-28T19:17:48.476Z,986.37
2023-03-28T19:18:49.291Z,986.39
2023-03-28T19:19:50.080Z,986.41
2023-03-28T19:20:50.882Z,986.40
2023-03-28T19:21:51.706Z,986.39
2023-03-28T19:22:52.541Z,986.39
2023-03-28T19:23:53.325Z,986.37
2023-03-28T19:24:54.128Z,986.35
2023-03-28T19:25:54.919Z,986.35
2023-03-28T19:26:57.027Z,986.36
2023-03-28T19:27:56.407Z,986.36
2023-03-28T19:28:57.206Z,986.36
2023-03-28T19:29:57.987Z,986.36
2023-03-28T19:30:58.841Z,986.38
2023-03-28T19:31:59.678Z,986.38
2023-03-28T19:33:00.584Z,986.36
2023-03-28T19:34:01.404Z,986.34
2023-03-28T19:35:02.225Z,986.37
2023-03-28T19:36:03.233Z,986.39
2023-03-28T19:37:04.212Z,986.42
2023-03-28T19:38:05.008Z,986.40
2023-03-28T19:39:05.818Z,986.40
2023-03-28T19:40:06.633Z,986.42
2023-03-28T19:41:10.038Z,986.43
2023-03-28T19:42:07.694Z,986.46
2023-03-28T19:43:08.491Z,986.44
2023-03-28T19:44:09.277Z,986.44
2023-03-28T19:45:10.059Z,986.45
2023-03-28T19:46:10.891Z,986.46
2023-03-28T19:47:11.736Z,986.47
2023-03-28T19:48:12.547Z,986.48
2023-03-28T19:49:13.409Z,986.50
2023-03-28T19:50:14.198Z,986.54
2023-03-28T19:51:14.983Z,986.56
2023-03-28T19:52:15.781Z,986.54
2023-03-28T19:53:16.642Z,986.55
2023-03-28T19:54:17.443Z,986.56
2023-03-28T19:55:18.250Z,986.56
2023-03-28T19:56:19.054Z,986.59
2023-03-28T19:57:19.889Z,986.57
2023-03-28T19:58:20.701Z,986.53
2023-03-28T19:59:21.526Z,986.53
2023-03-28T20:00:22.354Z,986.49
2023-03-28T20:01:23.180Z,986.46
2023-03-28T20:02:24.027Z,986.46
2023-03-28T20:03:24.904Z,986.45
2023-03-28T20:04:25.726Z,986.44
2023-03-28T20:05:26.546Z,986.45
2023-03-28T20:06:27.332Z,986.43
2023-03-28T20:07:28.119Z,986.42
2023-03-28T20:08:28.903Z,986.41
2023-03-28T20:09:29.685Z,986.40
2023-03-28T20:10:30.469Z,986.40
2023-03-28T20:11:31.251Z,986.39
2023-03-28T20:12:32.038Z,986.36
2023-03-28T20:13:32.828Z,986.35
2023-03-28T20:14:33.614Z,986.32
2023-03-28T20:15:34.421Z,986.29
2023-03-28T20:16:35.245Z,986.26
2023-03-28T20:17:36.047Z,986.22
2023-03-28T20:18:36.882Z,986.20
2023-03-28T20:19:38.219Z,986.16
2023-03-28T20:20:37.832Z,986.14
2023-03-28T20:21:38.624Z,986.11
2023-03-28T20:22:39.414Z,986.09
2023-03-28T20:23:40.268Z,986.05
2023-03-28T20:24:41.063Z,986.05
2023-03-28T20:25:41.867Z,986.06
2023-03-28T20:26:42.660Z,986.06
2023-03-28T20:27:43.467Z,986.12
2023-03-28T20:28:44.265Z,986.16
2023-03-28T20:29:45.052Z,986.22
2023-03-28T20:30:45.850Z,986.23
2023-03-28T20:31:46.763Z,986.23
2023-03-28T20:32:47.611Z,986.25
2023-03-28T20:33:48.426Z,986.21
2023-03-28T20:34:49.212Z,986.18
2023-03-28T20:35:50.039Z,986.11
2023-03-28T20:36:50.841Z,986.08
2023-03-28T20:37:51.618Z,986.06
2023-03-28T20:38:52.424Z,986.05
2023-03-28T20:39:53.215Z,986.08
2023-03-28T20:40:54.003Z,986.06
2023-03-28T20:41:54.805Z,986.08
2023-03-28T20:42:55.604Z,986.08
2023-03-28T20:43:56.483Z,986.11
2023-03-28T20:44:57.280Z,986.07
2023-03-28T20:45:58.077Z,986.05
2023-03-28T20:46:58.956Z,986.02
2023-03-28T20:47:59.804Z,986.03
2023-03-28T20:49:00.713Z,986.04
2023-03-28T20:50:01.565Z,986.06
2023-03-28T20:51:02.537Z,986.11
2023-03-28T20:52:03.496Z,986.16
2023-03-28T20:53:04.330Z,986.15
2023-03-28T20:54:05.118Z,986.09
2023-03-28T20:55:05.928Z,986.05
2023-03-28T20:56:06.719Z,986.09
2023-03-28T20:57:07.551Z,986.11
2023-03-28T20:58:08.476Z,986.07
2023-03-28T20:59:09.276Z,986.07
2023-03-28T21:00:11.132Z,986.04
2023-03-28T21:01:10.302Z,986.04
2023-03-28T21:02:11.120Z,986.00
2023-03-28T21:03:11.935Z,985.93
2023-03-28T21:04:12.742Z,985.96
2023-03-28T21:05:13.656Z,985.98
2023-03-28T21:06:14.474Z,985.96
2023-03-28T21:07:15.286Z,985.93
2023-03-28T21:08:16.074Z,985.90
2023-03-28T21:09:16.907Z,985.87
2023-03-28T21:10:17.700Z,985.89
2023-03-28T21:11:18.516Z,985.94
2023-03-28T21:12:19.377Z,985.97
2023-03-28T21:13:21.791Z,985.99
2023-03-28T21:14:20.552Z,986.00
2023-03-28T21:15:21.337Z,985.98
2023-03-28T21:16:21.102Z,985.95
2023-03-28T21:17:23.115Z,985.90
2023-03-28T21:18:23.922Z,985.90
2023-03-28T21:19:24.800Z,985.93
2023-03-28T21:20:25.612Z,985.97
2023-03-28T21:21:26.444Z,985.97
2023-03-28T21:22:27.247Z,985.97
2023-03-28T21:23:28.130Z,985.95
2023-03-28T21:24:28.942Z,985.90
2023-03-28T21:25:29.762Z,985.92
2023-03-28T21:26:30.695Z,985.90
2023-03-28T21:27:31.526Z,985.89
2023-03-28T21:28:32.356Z,985.88
2023-03-28T21:29:33.174Z,985.93
2023-03-28T21:30:33.963Z,985.98
2023-03-28T21:31:34.788Z,985.98
2023-03-28T21:32:35.623Z,986.01
2023-03-28T21:33:36.590Z,986.00
2023-03-28T21:34:37.378Z,985.96
2023-03-28T21:35:38.260Z,985.98
2023-03-28T21:36:39.091Z,985.97
2023-03-28T21:37:39.888Z,985.97
2023-03-28T21:38:40.676Z,985.99
2023-03-28T21:39:41.473Z,986.00
2023-03-28T21:40:42.256Z,986.07
2023-03-28T21:41:43.088Z,986.10
2023-03-28T21:42:43.883Z,986.10
2023-03-28T21:43:44.690Z,986.08
2023-03-28T21:44:45.488Z,986.06
2023-03-28T21:45:46.291Z,986.10
2023-03-28T21:46:47.166Z,986.10
2023-03-28T21:47:48.024Z,986.14
2023-03-28T21:48:48.844Z,986.17
2023-03-28T21:49:49.744Z,986.16
2023-03-28T21:50:50.555Z,986.15
2023-03-28T21:51:51.361Z,986.12
2023-03-28T21:52:52.162Z,986.05
2023-03-28T21:53:52.964Z,985.98
2023-03-28T21:54:53.806Z,985.91
2023-03-28T21:55:54.585Z,985.84
2023-03-28T21:56:55.420Z,985.72
2023-03-28T21:57:56.218Z,985.66
2023-03-28T21:58:57.016Z,985.58
2023-03-28T21:59:57.803Z,985.51
2023-03-28T22:00:58.687Z,985.45
2023-03-28T22:01:59.700Z,985.41
2023-03-28T22:03:00.699Z,985.40
2023-03-28T22:04:01.544Z,985.42
2023-03-28T22:05:02.340Z,985.45
2023-03-28T22:06:03.154Z,985.45
2023-03-28T22:07:03.958Z,985.41
2023-03-28T22:08:04.763Z,985.41
2023-03-28T22:09:05.546Z,985.38
2023-03-28T22:10:06.339Z,985.31
2023-03-28T22:11:07.132Z,985.30
2023-03-28T22:12:07.942Z,985.30
2023-03-28T22:13:08.738Z,985.27
2023-03-28T22:14:09.557Z,985.26
2023-03-28T22:15:11.357Z,985.24
2023-03-28T22:16:11.116Z,985.26
2023-03-28T22:17:11.921Z,985.26
2023-03-28T22:18:12.711Z,985.28
2023-03-28T22:19:13.510Z,985.32
2023-03-28T22:20:14.299Z,985.36
2023-03-28T22:21:15.122Z,985.41
2023-03-28T22:22:15.917Z,985.41
2023-03-28T22:23:16.709Z,985.45
2023-03-28T22:24:17.561Z,985.46
2023-03-28T22:25:18.365Z,985.45
2023-03-28T22:26:19.154Z,985.48
2023-03-28T22:27:19.945Z,985.57
2023-03-28T22:28:20.804Z,985.68
2023-03-28T22:29:21.704Z,985.75
2023-03-28T22:30:22.531Z,985.76
2023-03-28T22:31:23.400Z,985.77
2023-03-28T22:32:24.274Z,985.77
2023-03-28T22:33:25.368Z,985.72
2023-03-28T22:34:25.345Z,985.68
2023-03-28T22:35:26.159Z,985.64
2023-03-28T22:36:26.980Z,985.62
2023-03-28T22:37:27.829Z,985.55
2023-03-28T22:38:28.628Z,985.50
2023-03-28T22:39:29.430Z,985.46
2023-03-28T22:40:30.219Z,985.42
2023-03-28T22:41:31.024Z,985.39
2023-03-28T22:42:31.810Z,985.35
2023-03-28T22:43:32.661Z,985.33
2023-03-28T22:44:33.456Z,985.33
2023-03-28T22:45:34.257Z,985.34
2023-03-28T22:46:35.056Z,985.39
2023-03-28T22:47:35.902Z,985.47
2023-03-28T22:48:36.700Z,985.59
2023-03-28T22:49:37.573Z,985.65
2023-03-28T22:50:38.379Z,985.64
2023-03-28T22:51:39.174Z,985.59
2023-03-28T22:52:39.983Z,985.68
2023-03-28T22:53:40.826Z,985.79
2023-03-28T22:54:41.621Z,985.86
2023-03-28T22:55:41.346Z,985.85
2023-03-28T22:56:43.278Z,985.79
2023-03-28T22:57:44.117Z,985.72
2023-03-28T22:58:45.012Z,985.75
2023-03-28T22:59:45.845Z,985.78
2023-03-28T23:00:46.637Z,985.73
2023-03-28T23:01:47.523Z,985.70
2023-03-28T23:02:48.416Z,985.69
2023-03-28T23:03:49.249Z,985.76
2023-03-28T23:04:50.092Z,985.73
2023-03-28T23:05:51.001Z,985.67
2023-03-28T23:06:51.816Z,985.59
2023-03-28T23:07:52.639Z,985.60
2023-03-28T23:08:53.422Z,985.66
2023-03-28T23:09:54.240Z,985.72
2023-03-28T23:10:55.038Z,985.74
2023-03-28T23:11:55.838Z,985.89
2023-03-28T23:12:56.692Z,985.93
2023-03-28T23:13:57.510Z,985.85
2023-03-28T23:14:58.303Z,985.77
2023-03-28T23:15:59.224Z,985.63
2023-03-28T23:17:00.130Z,985.63
2023-03-28T23:18:00.975Z,985.84
2023-03-28T23:19:01.786Z,985.94
2023-03-28T23:20:02.573Z,986.01
2023-03-28T23:21:03.601Z,985.95
2023-03-28T23:22:03.441Z,985.94
2023-03-28T23:23:04.226Z,985.88
2023-03-28T23:24:05.008Z,985.90
2023-03-28T23:25:05.792Z,985.91
2023-03-28T23:26:06.599Z,985.91
2023-03-28T23:27:07.400Z,985.86
2023-03-28T23:28:08.200Z,985.87
2023-03-28T23:29:08.985Z,985.85
2023-03-28T23:30:09.769Z,985.82
2023-03-28T23:31:10.621Z,985.82
2023-03-28T23:32:11.441Z,985.85
2023-03-28T23:33:12.230Z,985.86
2023-03-28T23:34:13.020Z,985.88
2023-03-28T23:35:13.834Z,985.86
2023-03-28T23:36:14.671Z,985.83
2023-03-28T23:37:15.469Z,985.81
2023-03-28T23:38:16.257Z,985.75
2023-03-28T23:39:17.031Z,985.74
2023-03-28T23:40:17.835Z,985.74
2023-03-28T23:41:18.633Z,985.76
2023-03-28T23:42:19.439Z,985.82
2023-03-28T23:43:20.233Z,985.81
2023-03-28T23:44:21.026Z,985.84
2023-03-28T23:45:21.818Z,985.82
2023-03-28T23:46:22.649Z,985.79
2023-03-28T23:47:23.583Z,985.81
2023-03-28T23:48:24.397Z,985.82
2023-03-28T23:49:25.208Z,985.80
2023-03-28T23:50:26.033Z,985.79
2023-03-28T23:51:26.855Z,985.77
2023-03-28T23:52:27.645Z,985.74
2023-03-28T23:53:28.435Z,985.76
2023-03-28T23:54:29.221Z,985.73
2023-03-28T23:55:30.011Z,985.71
2023-03-28T23:56:30.826Z,985.66
2023-03-28T23:57:31.615Z,985.66
2023-03-28T23:58:32.408Z,985.62
2023-03-28T23:59:33.190Z,985.65
